Terminal Aerodrome Forecast
Issued by NWS Atlanta, GA

Home | Current Version | Previous Version | Text Only | Print | Product List | Glossary On
Versions: 1 2 3 4 5 6 7 8 9 10 11 12 13 14 15 16 17 18 19 20 21 22 23 24 25 26 27 28 29 30 31 32 33 34 35 36 37 38 39 40
000
FTUS42 KFFC 280414 AAC
TAFATL
TAF AMD
KATL 280414Z 2804/2906 VRB03KT 6SM -SHRA BR SCT015 OVC025
      TEMPO 2804/2808 BKN015
     FM280800 17004KT 3SM SHRA BR SCT007 OVC015
     FM281000 15005KT 3SM SHRA BR OVC005
     FM281300 21007KT 2SM -SHRA BR OVC004
     FM282200 27004KT 6SM BR VCSH OVC015
     FM290200 31004KT 3SM BR OVC005=

USA.gov is the U.S. government's official web portal to all federal, state and local government web resources and services.